Mission Field Livingston US
ICAO: KLVM
IATA: LVM
Category: Medium
Scheduled Services: No

Elevation: 4660 ft
TransAlt. 18000 ft.

Airport Communications:
ASOS:135.275
GREAT FALLS RDO:122.2
CTAF/UNICOM:123

KLVM Zoom In..

Runways:

(A) RW 04 length 5701 ft width 75 ft
---- / hdg 39

(B) RW 08 length 3762 ft width 125 ft
---- / hdg 78

(C) RW 13 length 2724 ft width 120 ft
---- / hdg 132

(D) RW 22 length 5701 ft width 75 ft
---- / hdg 219

(E) RW 26 length 3762 ft width 125 ft
---- / hdg 258

(F) RW 31 length 2724 ft width 120 ft
---- / hdg 312

Location; KLVM
Day. 14 / Time. 13.53 Zulu
* Altimeter: 30.11
* Temperature: 12° c. 53.6°f.
* Wind from: 330° Speed 05 kn.
Dewpoint: 08° c.
Visibility: 10 Statute Miles.
Clouds: Clear (automated report).

KLVM 141353Z AUTO 33005KT 10SM CLR 12/08 A3011 RMK AO2 SLP163 T01170083


Wind From 330°
Speed 05 kn.

 
 
jpsmedia.com for Web Design worldairports.se 2018   terms of use